BERICHT 22/12/2019: De oude website is tijdelijk weer online! In 2020 zal er een volledig nieuwe site uitgerold worden, die nu volop in ontwikkeling is! Ondertussen blijven onderstaande metingen wel actueel!

Weerstation Zoersel Live Webcam Weerstation Zoersel Live Webcam


sateliet wolkenradar  


Doneren

CBI


onweer radar meer informatie blitzortung!


regen radar  rain snow radar


Enkele sfeerfotootjes...  

We konden geen weer-waarchuwingen ophalen. Ga rechtstreeks naar de Meteoalarm site : www.meteoalarm.eu en controleer daar .

metar rapporten vliegvelden

   
EBAW - Antwerp
gewijzigd: 28-09-2023 07:20
helder  
helder  
   wind: zw 9,3 km/h
wind: zw 9,3 km/h
temperatuur: 16°C
dauwpunt: 12°C
vochtigheid: 77%
barometer: 1016 hPa
zicht: meer dan 10 km
bewolking: helder
EBAW 280520Z 22005KT CAVOK 16/12 Q1016 NOSIG
EBLG - Li├Ęge
gewijzigd: 28-09-2023 07:20
helder  
helder  
   wind: zzw 9,3 km/h
wind: zzw 9,3 km/h
temperatuur: 16°C
dauwpunt: 13°C
vochtigheid: 83%
barometer: 1017 hPa
zicht: meer dan 10 km
bewolking: helder
EBLG 280520Z 21005KT CAVOK 16/13 Q1017 NOSIG
EBCV - Mons/Bergen
gewijzigd: 28-09-2023 07:25
grotendeels bewolkt  
grotendeels bewolkt  
   wind: zzw 11,1 km/h
wind: zzw 11,1 km/h
temperatuur: 13°C
dauwpunt: 12°C
vochtigheid: 94%
barometer: 1016 hPa
bewolking: grotendeels bewolkt
zicht: meer dan 10 km
bewolking: licht bewolkt 9500 ft,
grotendeels bewolkt 11000 ft
EBCV 280525Z AUTO 21006KT 9999 FEW095/// BKN110/// 13/12 Q1016 BLU
EHBK - Maastricht
gewijzigd: 28-09-2023 07:25
licht bewolkt  
licht bewolkt  
   wind: zzw 11,1 km/h
wind: zzw 11,1 km/h
temperatuur: 15°C
dauwpunt: 13°C
vochtigheid: 88%
barometer: 1016 hPa
bewolking: licht bewolkt
zicht: meer dan 10 km
bewolking: licht bewolkt 3400 ft
EHBK 280525Z AUTO 20006KT 9999 FEW034 15/13 Q1016 NOSIG
ELLX - Luxemburg
gewijzigd: 28-09-2023 07:20
helder  
helder  
   wind: zzw 7,4 km/h
wind: zzw 7,4 km/h
temperatuur: 13°C
dauwpunt: 11°C
vochtigheid: 88%
barometer: 1018 hPa
zicht: meer dan 10 km
bewolking: helder
ELLX 280520Z 21004KT 180V250 CAVOK 13/11 Q1018 NOSIG
EBOS - Oostende
gewijzigd: 28-09-2023 07:20
grotendeels bewolkt  
grotendeels bewolkt  
   wind: zw 16,7 km/h
wind: zw 16,7 km/h
temperatuur: 15°C
dauwpunt: 12°C
vochtigheid: 82%
barometer: 1015 hPa
bewolking: grotendeels bewolkt
zicht: meer dan 10 km
bewolking: licht bewolkt 2500 ft,
grotendeels bewolkt 3000 ft
EBOS 280520Z 22009KT 9999 FEW025 BKN030 15/12 Q1015 NOSIG

script ontwikkeld door  Saratoga-weather.org aangepast voor de template door  Weerstation Leuven